sensor_id;sensor_type;location;lat;lon;timestamp;pressure;altitude;pressure_sealevel;temperature;humidity
15646;BME280;7922;43.622;1.476;2023-03-21T00:00:26;100360.22;;;7.51;91.43
15646;BME280;7922;43.622;1.476;2023-03-21T00:02:51;100335.94;;;7.38;92.32
15646;BME280;7922;43.622;1.476;2023-03-21T00:05:17;100272.78;;;6.98;91.39
15646;BME280;7922;43.622;1.476;2023-03-21T00:07:42;100259.75;;;6.92;91.58
15646;BME280;7922;43.622;1.476;2023-03-21T00:10:09;100273.50;;;7.05;92.08
15646;BME280;7922;43.622;1.476;2023-03-21T00:12:34;100324.59;;;7.35;91.68
15646;BME280;7922;43.622;1.476;2023-03-21T00:14:59;100335.00;;;7.41;91.34
15646;BME280;7922;43.622;1.476;2023-03-21T00:17:25;100327.38;;;7.29;91.11
15646;BME280;7922;43.622;1.476;2023-03-21T00:19:52;100326.56;;;7.27;91.51
15646;BME280;7922;43.622;1.476;2023-03-21T00:22:18;100315.13;;;7.28;91.68
15646;BME280;7922;43.622;1.476;2023-03-21T00:24:43;100250.25;;;6.86;91.60
15646;BME280;7922;43.622;1.476;2023-03-21T00:27:08;100238.97;;;6.80;91.32
15646;BME280;7922;43.622;1.476;2023-03-21T00:29:34;100316.09;;;7.22;91.74
15646;BME280;7922;43.622;1.476;2023-03-21T00:31:59;100329.28;;;7.23;91.14
15646;BME280;7922;43.622;1.476;2023-03-21T00:34:24;100257.28;;;6.84;91.48
15646;BME280;7922;43.622;1.476;2023-03-21T00:36:49;100311.19;;;7.08;91.72
15646;BME280;7922;43.622;1.476;2023-03-21T00:39:15;100266.91;;;6.85;91.85
15646;BME280;7922;43.622;1.476;2023-03-21T00:41:40;100300.78;;;7.02;91.67
15646;BME280;7922;43.622;1.476;2023-03-21T00:44:05;100330.13;;;7.24;92.08
15646;BME280;7922;43.622;1.476;2023-03-21T00:46:30;100318.75;;;7.22;91.91
15646;BME280;7922;43.622;1.476;2023-03-21T00:48:56;100270.41;;;6.87;91.19
15646;BME280;7922;43.622;1.476;2023-03-21T00:51:22;100274.81;;;6.87;91.46
15646;BME280;7922;43.622;1.476;2023-03-21T00:53:47;100302.44;;;7.06;91.70
15646;BME280;7922;43.622;1.476;2023-03-21T00:56:13;100310.38;;;7.05;91.91
15646;BME280;7922;43.622;1.476;2023-03-21T00:58:38;100275.09;;;6.73;92.06
15646;BME280;7922;43.622;1.476;2023-03-21T01:01:03;100334.97;;;7.04;92.14
15646;BME280;7922;43.622;1.476;2023-03-21T01:03:29;100320.28;;;6.93;91.90
15646;BME280;7922;43.622;1.476;2023-03-21T01:05:54;100352.53;;;7.03;92.38
15646;BME280;7922;43.622;1.476;2023-03-21T01:08:20;100242.53;;;6.37;92.09
15646;BME280;7922;43.622;1.476;2023-03-21T01:10:47;100338.75;;;6.92;92.15
15646;BME280;7922;43.622;1.476;2023-03-21T01:13:14;100284.13;;;6.61;91.94
15646;BME280;7922;43.622;1.476;2023-03-21T01:15:49;100262.28;;;6.56;92.18
15646;BME280;7922;43.622;1.476;2023-03-21T01:18:16;100245.97;;;6.40;92.23
15646;BME280;7922;43.622;1.476;2023-03-21T01:20:42;100304.84;;;6.77;91.20
15646;BME280;7922;43.622;1.476;2023-03-21T01:23:09;100284.94;;;6.63;91.95
15646;BME280;7922;43.622;1.476;2023-03-21T01:25:35;100301.44;;;6.73;91.79
15646;BME280;7922;43.622;1.476;2023-03-21T01:28:00;100265.88;;;6.54;91.39
15646;BME280;7922;43.622;1.476;2023-03-21T01:30:25;100226.06;;;6.27;91.46
15646;BME280;7922;43.622;1.476;2023-03-21T01:32:50;100338.91;;;6.84;91.99
15646;BME280;7922;43.622;1.476;2023-03-21T01:35:16;100317.13;;;6.78;92.35
15646;BME280;7922;43.622;1.476;2023-03-21T01:37:41;100279.00;;;6.55;91.79
15646;BME280;7922;43.622;1.476;2023-03-21T01:40:07;100321.41;;;6.82;91.17
15646;BME280;7922;43.622;1.476;2023-03-21T01:42:32;100295.59;;;6.57;92.09
15646;BME280;7922;43.622;1.476;2023-03-21T01:45:03;100251.34;;;6.36;92.45
15646;BME280;7922;43.622;1.476;2023-03-21T01:47:29;100279.09;;;6.50;92.22
15646;BME280;7922;43.622;1.476;2023-03-21T01:49:57;100267.16;;;6.34;92.49
15646;BME280;7922;43.622;1.476;2023-03-21T01:52:31;100220.38;;;6.07;92.13
15646;BME280;7922;43.622;1.476;2023-03-21T01:54:58;100201.28;;;5.97;92.55
15646;BME280;7922;43.622;1.476;2023-03-21T01:57:31;100278.41;;;6.41;92.55
15646;BME280;7922;43.622;1.476;2023-03-21T02:00:03;100189.97;;;5.93;92.36
15646;BME280;7922;43.622;1.476;2023-03-21T02:02:30;100277.66;;;6.36;92.72
15646;BME280;7922;43.622;1.476;2023-03-21T02:04:56;100204.78;;;5.97;93.22
15646;BME280;7922;43.622;1.476;2023-03-21T02:07:28;100283.63;;;6.42;93.37
15646;BME280;7922;43.622;1.476;2023-03-21T02:09:54;100242.00;;;6.21;93.77
15646;BME280;7922;43.622;1.476;2023-03-21T02:12:20;100192.72;;;5.86;93.06
15646;BME280;7922;43.622;1.476;2023-03-21T02:14:50;100192.56;;;5.92;93.78
15646;BME280;7922;43.622;1.476;2023-03-21T02:17:34;100278.25;;;6.48;92.94
15646;BME280;7922;43.622;1.476;2023-03-21T02:28:35;100268.59;;;6.49;92.04
15646;BME280;7922;43.622;1.476;2023-03-21T02:31:22;100278.25;;;6.50;92.83
15646;BME280;7922;43.622;1.476;2023-03-21T02:39:27;100235.69;;;6.28;92.32
15646;BME280;7922;43.622;1.476;2023-03-21T02:42:21;100250.53;;;6.32;92.15
15646;BME280;7922;43.622;1.476;2023-03-21T02:45:20;100238.41;;;6.25;91.72
15646;BME280;7922;43.622;1.476;2023-03-21T02:47:55;100175.22;;;5.83;92.30
15646;BME280;7922;43.622;1.476;2023-03-21T02:50:26;100267.16;;;6.34;92.72
15646;BME280;7922;43.622;1.476;2023-03-21T02:52:54;100177.09;;;5.78;92.82
15646;BME280;7922;43.622;1.476;2023-03-21T02:55:25;100244.75;;;6.15;92.94
15646;BME280;7922;43.622;1.476;2023-03-21T02:57:53;100249.00;;;6.20;92.78
15646;BME280;7922;43.622;1.476;2023-03-21T03:00:21;100185.03;;;5.75;92.62
15646;BME280;7922;43.622;1.476;2023-03-21T03:02:48;100191.91;;;5.82;93.08
15646;BME280;7922;43.622;1.476;2023-03-21T03:05:18;100051.75;;;4.93;92.56
15646;BME280;7922;43.622;1.476;2023-03-21T03:13:02;100195.50;;;5.76;92.37
15646;BME280;7922;43.622;1.476;2023-03-21T03:25:45;100267.81;;;6.00;92.70
15646;BME280;7922;43.622;1.476;2023-03-21T03:28:17;100234.06;;;5.77;93.70
15646;BME280;7922;43.622;1.476;2023-03-21T03:30:45;100190.03;;;5.41;93.63
15646;BME280;7922;43.622;1.476;2023-03-21T03:33:12;100182.25;;;5.36;93.89
15646;BME280;7922;43.622;1.476;2023-03-21T03:35:37;100211.81;;;5.49;94.32
15646;BME280;7922;43.622;1.476;2023-03-21T03:38:06;100241.34;;;5.62;93.84
15646;BME280;7922;43.622;1.476;2023-03-21T03:40:40;100262.94;;;5.79;93.81
15646;BME280;7922;43.622;1.476;2023-03-21T03:43:10;100154.72;;;5.09;93.93
15646;BME280;7922;43.622;1.476;2023-03-21T03:45:49;100173.75;;;5.22;93.68
15646;BME280;7922;43.622;1.476;2023-03-21T03:48:29;100238.03;;;5.52;93.44
15646;BME280;7922;43.622;1.476;2023-03-21T03:53:41;100198.16;;;5.28;94.30
15646;BME280;7922;43.622;1.476;2023-03-21T03:56:08;100259.69;;;5.65;93.69
15646;BME280;7922;43.622;1.476;2023-03-21T03:58:34;100267.47;;;5.69;93.78
15646;BME280;7922;43.622;1.476;2023-03-21T04:01:00;100203.34;;;5.31;93.66
15646;BME280;7922;43.622;1.476;2023-03-21T04:03:25;100223.31;;;5.42;94.33
15646;BME280;7922;43.622;1.476;2023-03-21T04:05:50;100244.25;;;5.46;93.58
15646;BME280;7922;43.622;1.476;2023-03-21T04:08:16;100264.13;;;5.61;93.72
15646;BME280;7922;43.622;1.476;2023-03-21T04:10:42;100275.50;;;5.62;93.71
15646;BME280;7922;43.622;1.476;2023-03-21T04:13:08;100204.41;;;5.21;93.54
15646;BME280;7922;43.622;1.476;2023-03-21T04:15:34;100293.00;;;5.64;94.00
15646;BME280;7922;43.622;1.476;2023-03-21T04:18:00;100257.44;;;5.43;93.26
15646;BME280;7922;43.622;1.476;2023-03-21T04:20:25;100252.22;;;5.42;94.31
15646;BME280;7922;43.622;1.476;2023-03-21T04:22:50;100213.94;;;5.25;93.32
15646;BME280;7922;43.622;1.476;2023-03-21T04:25:16;100291.94;;;5.74;93.69
15646;BME280;7922;43.622;1.476;2023-03-21T04:27:41;100248.72;;;5.40;93.01
15646;BME280;7922;43.622;1.476;2023-03-21T04:30:08;100224.59;;;5.18;93.63
15646;BME280;7922;43.622;1.476;2023-03-21T04:32:33;100196.91;;;4.97;93.95
15646;BME280;7922;43.622;1.476;2023-03-21T04:34:59;100289.81;;;5.44;94.16
15646;BME280;7922;43.622;1.476;2023-03-21T04:37:25;100305.31;;;5.59;93.86
15646;BME280;7922;43.622;1.476;2023-03-21T04:39:50;100239.44;;;5.20;93.44
15646;BME280;7922;43.622;1.476;2023-03-21T04:42:17;100236.81;;;5.20;93.17
15646;BME280;7922;43.622;1.476;2023-03-21T04:44:46;100304.44;;;5.59;93.48
15646;BME280;7922;43.622;1.476;2023-03-21T04:47:13;100223.91;;;5.06;93.88
15646;BME280;7922;43.622;1.476;2023-03-21T04:49:38;100231.78;;;5.06;92.98
15646;BME280;7922;43.622;1.476;2023-03-21T04:52:04;100230.91;;;5.06;92.47
15646;BME280;7922;43.622;1.476;2023-03-21T04:54:30;100286.50;;;5.34;92.32
15646;BME280;7922;43.622;1.476;2023-03-21T04:56:55;100286.50;;;5.32;92.13
15646;BME280;7922;43.622;1.476;2023-03-21T04:59:20;100217.06;;;4.98;92.41
15646;BME280;7922;43.622;1.476;2023-03-21T05:01:46;100213.63;;;4.93;92.90
15646;BME280;7922;43.622;1.476;2023-03-21T05:04:13;100284.78;;;5.31;93.17
15646;BME280;7922;43.622;1.476;2023-03-21T05:06:39;100257.91;;;5.14;93.86
15646;BME280;7922;43.622;1.476;2023-03-21T05:09:05;100223.13;;;5.00;93.73
15646;BME280;7922;43.622;1.476;2023-03-21T05:11:32;100208.31;;;4.96;94.29
15646;BME280;7922;43.622;1.476;2023-03-21T05:13:58;100217.06;;;4.96;93.40
15646;BME280;7922;43.622;1.476;2023-03-21T05:16:24;100202.34;;;4.86;93.88
15646;BME280;7922;43.622;1.476;2023-03-21T05:18:49;100271.81;;;5.21;94.26
15646;BME280;7922;43.622;1.476;2023-03-21T05:21:14;100203.31;;;4.80;94.18
15646;BME280;7922;43.622;1.476;2023-03-21T05:23:40;100289.91;;;5.39;94.23
15646;BME280;7922;43.622;1.476;2023-03-21T05:26:06;100273.53;;;5.23;94.07
15646;BME280;7922;43.622;1.476;2023-03-21T05:28:33;100213.63;;;4.93;94.49
15646;BME280;7922;43.622;1.476;2023-03-21T05:30:58;100314.38;;;5.43;94.08
15646;BME280;7922;43.622;1.476;2023-03-21T05:33:23;100322.13;;;5.50;93.91
15646;BME280;7922;43.622;1.476;2023-03-21T05:35:49;100247.53;;;5.06;93.78
15646;BME280;7922;43.622;1.476;2023-03-21T05:38:15;100301.31;;;5.38;93.63
15646;BME280;7922;43.622;1.476;2023-03-21T05:40:40;100221.53;;;4.91;93.77
15646;BME280;7922;43.622;1.476;2023-03-21T05:43:05;100255.38;;;5.08;93.51
15646;BME280;7922;43.622;1.476;2023-03-21T05:45:30;100299.50;;;5.40;93.38
15646;BME280;7922;43.622;1.476;2023-03-21T05:47:56;100316.13;;;5.41;93.59
15646;BME280;7922;43.622;1.476;2023-03-21T05:50:21;100258.94;;;5.04;93.49
15646;BME280;7922;43.622;1.476;2023-03-21T05:52:46;100344.94;;;5.48;94.22
15646;BME280;7922;43.622;1.476;2023-03-21T05:55:12;100283.38;;;5.09;93.62
15646;BME280;7922;43.622;1.476;2023-03-21T05:57:37;100328.59;;;5.26;93.88
15646;BME280;7922;43.622;1.476;2023-03-21T06:00:02;100262.75;;;4.85;93.11
15646;BME280;7922;43.622;1.476;2023-03-21T06:02:28;100275.72;;;4.95;93.31
15646;BME280;7922;43.622;1.476;2023-03-21T06:04:53;100366.00;;;5.44;94.07
15646;BME280;7922;43.622;1.476;2023-03-21T06:07:18;100340.84;;;5.29;94.21
15646;BME280;7922;43.622;1.476;2023-03-21T06:09:44;100241.84;;;4.77;93.82
15646;BME280;7922;43.622;1.476;2023-03-21T06:12:10;100378.13;;;5.54;93.58
15646;BME280;7922;43.622;1.476;2023-03-21T06:14:36;100353.00;;;5.36;94.15
15646;BME280;7922;43.622;1.476;2023-03-21T06:17:02;100351.22;;;5.37;93.17
15646;BME280;7922;43.622;1.476;2023-03-21T06:19:27;100351.09;;;5.46;93.75
15646;BME280;7922;43.622;1.476;2023-03-21T06:21:52;100359.59;;;5.63;92.62
15646;BME280;7922;43.622;1.476;2023-03-21T06:24:17;100394.31;;;5.82;92.45
15646;BME280;7922;43.622;1.476;2023-03-21T06:26:43;100352.44;;;5.70;92.21
15646;BME280;7922;43.622;1.476;2023-03-21T06:29:09;100413.22;;;6.07;90.93
15646;BME280;7922;43.622;1.476;2023-03-21T06:31:34;100372.34;;;5.86;91.24
15646;BME280;7922;43.622;1.476;2023-03-21T06:33:59;100319.16;;;5.70;90.38
15646;BME280;7922;43.622;1.476;2023-03-21T06:36:25;100299.06;;;5.66;90.55
15646;BME280;7922;43.622;1.476;2023-03-21T06:38:50;100384.97;;;6.18;90.12
15646;BME280;7922;43.622;1.476;2023-03-21T06:41:15;100344.88;;;6.04;90.29
15646;BME280;7922;43.622;1.476;2023-03-21T06:43:41;100418.44;;;6.57;89.13
15646;BME280;7922;43.622;1.476;2023-03-21T06:46:06;100430.53;;;6.67;89.23
15646;BME280;7922;43.622;1.476;2023-03-21T06:48:31;100397.47;;;6.54;89.37
15646;BME280;7922;43.622;1.476;2023-03-21T06:50:57;100339.09;;;6.32;88.56
15646;BME280;7922;43.622;1.476;2023-03-21T06:53:24;100427.25;;;6.99;88.04
15646;BME280;7922;43.622;1.476;2023-03-21T06:55:50;100425.44;;;7.03;88.33
15646;BME280;7922;43.622;1.476;2023-03-21T06:58:16;100323.03;;;6.47;88.26
15646;BME280;7922;43.622;1.476;2023-03-21T07:00:41;100418.22;;;7.12;88.46
15646;BME280;7922;43.622;1.476;2023-03-21T07:03:06;100333.94;;;6.70;87.80
15646;BME280;7922;43.622;1.476;2023-03-21T07:05:34;100344.94;;;6.89;87.75
15646;BME280;7922;43.622;1.476;2023-03-21T07:07:59;100412.31;;;7.40;86.88
15646;BME280;7922;43.622;1.476;2023-03-21T07:10:24;100408.66;;;7.47;87.18
15646;BME280;7922;43.622;1.476;2023-03-21T07:12:50;100372.22;;;7.27;86.72
15646;BME280;7922;43.622;1.476;2023-03-21T07:15:15;100339.81;;;7.22;86.99
15646;BME280;7922;43.622;1.476;2023-03-21T07:17:40;100365.66;;;7.45;86.53
15646;BME280;7922;43.622;1.476;2023-03-21T07:20:06;100404.41;;;7.79;86.77
15646;BME280;7922;43.622;1.476;2023-03-21T07:22:31;100331.41;;;7.43;85.85
15646;BME280;7922;43.622;1.476;2023-03-21T07:24:56;100319.88;;;7.47;85.31
15646;BME280;7922;43.622;1.476;2023-03-21T07:27:22;100361.09;;;7.87;85.22
15646;BME280;7922;43.622;1.476;2023-03-21T07:29:47;100367.59;;;8.08;84.33
15646;BME280;7922;43.622;1.476;2023-03-21T07:32:12;100321.44;;;7.90;84.29
15646;BME280;7922;43.622;1.476;2023-03-21T07:34:37;100384.50;;;8.34;84.47
15646;BME280;7922;43.622;1.476;2023-03-21T07:37:03;100328.81;;;8.12;84.04
15646;BME280;7922;43.622;1.476;2023-03-21T07:39:29;100294.56;;;7.78;84.02
15646;BME280;7922;43.622;1.476;2023-03-21T07:41:54;100335.50;;;8.24;83.53
15646;BME280;7922;43.622;1.476;2023-03-21T07:44:22;100411.97;;;8.92;83.11
15646;BME280;7922;43.622;1.476;2023-03-21T07:46:48;100376.59;;;8.66;82.73
15646;BME280;7922;43.622;1.476;2023-03-21T07:49:13;100323.47;;;8.48;82.12
15646;BME280;7922;43.622;1.476;2023-03-21T07:51:38;100430.91;;;9.08;81.68
15646;BME280;7922;43.622;1.476;2023-03-21T07:54:04;100417.09;;;9.28;81.18
15646;BME280;7922;43.622;1.476;2023-03-21T07:56:29;100357.13;;;9.00;80.57
15646;BME280;7922;43.622;1.476;2023-03-21T07:58:54;100408.94;;;9.35;80.27
15646;BME280;7922;43.622;1.476;2023-03-21T08:01:20;100432.50;;;9.71;80.07
15646;BME280;7922;43.622;1.476;2023-03-21T08:03:45;100372.69;;;9.39;79.52
15646;BME280;7922;43.622;1.476;2023-03-21T08:06:10;100389.13;;;9.77;78.83
15646;BME280;7922;43.622;1.476;2023-03-21T08:08:36;100449.66;;;10.12;78.10
15646;BME280;7922;43.622;1.476;2023-03-21T08:11:03;100416.88;;;9.92;77.76
15646;BME280;7922;43.622;1.476;2023-03-21T08:13:29;100448.28;;;10.29;77.62
15646;BME280;7922;43.622;1.476;2023-03-21T08:15:54;100420.47;;;10.16;76.71
15646;BME280;7922;43.622;1.476;2023-03-21T08:18:19;100445.81;;;10.49;76.94
15646;BME280;7922;43.622;1.476;2023-03-21T08:20:44;100457.78;;;10.61;76.40
15646;BME280;7922;43.622;1.476;2023-03-21T08:23:10;100450.69;;;10.87;76.24
15646;BME280;7922;43.622;1.476;2023-03-21T08:25:35;100455.75;;;10.93;75.34
15646;BME280;7922;43.622;1.476;2023-03-21T08:28:02;100492.94;;;11.15;75.23
15646;BME280;7922;43.622;1.476;2023-03-21T08:30:28;100410.03;;;10.63;76.66
15646;BME280;7922;43.622;1.476;2023-03-21T08:33:00;100416.91;;;10.92;75.17
15646;BME280;7922;43.622;1.476;2023-03-21T08:35:25;100468.28;;;11.13;74.48
15646;BME280;7922;43.622;1.476;2023-03-21T08:37:51;100422.56;;;10.82;74.87
15646;BME280;7922;43.622;1.476;2023-03-21T08:40:17;100440.19;;;11.07;73.26
15646;BME280;7922;43.622;1.476;2023-03-21T08:42:43;100459.75;;;11.28;72.70
15646;BME280;7922;43.622;1.476;2023-03-21T08:45:10;100489.78;;;11.75;72.69
15646;BME280;7922;43.622;1.476;2023-03-21T08:47:35;100429.25;;;11.62;70.95
15646;BME280;7922;43.622;1.476;2023-03-21T08:50:01;100447.16;;;11.56;71.07
15646;BME280;7922;43.622;1.476;2023-03-21T08:52:26;100495.72;;;12.06;72.79
15646;BME280;7922;43.622;1.476;2023-03-21T08:54:52;100458.78;;;11.99;72.01
15646;BME280;7922;43.622;1.476;2023-03-21T08:57:18;100430.97;;;11.86;70.90
15646;BME280;7922;43.622;1.476;2023-03-21T08:59:43;100469.41;;;12.20;69.87
15646;BME280;7922;43.622;1.476;2023-03-21T09:02:13;100426.50;;;11.88;69.61
15646;BME280;7922;43.622;1.476;2023-03-21T09:04:38;100429.00;;;12.13;69.34
15646;BME280;7922;43.622;1.476;2023-03-21T09:07:03;100475.50;;;12.44;69.37
15646;BME280;7922;43.622;1.476;2023-03-21T09:09:29;100458.78;;;12.20;69.70
15646;BME280;7922;43.622;1.476;2023-03-21T09:11:54;100482.50;;;12.67;69.40
15646;BME280;7922;43.622;1.476;2023-03-21T09:14:19;100466.75;;;12.62;69.36
15646;BME280;7922;43.622;1.476;2023-03-21T09:16:45;100429.41;;;12.24;68.82
15646;BME280;7922;43.622;1.476;2023-03-21T09:19:10;100490.19;;;12.52;69.41
15646;BME280;7922;43.622;1.476;2023-03-21T09:21:35;100467.09;;;12.55;69.12
15646;BME280;7922;43.622;1.476;2023-03-21T09:24:01;100458.84;;;12.81;68.24
15646;BME280;7922;43.622;1.476;2023-03-21T09:26:26;100484.13;;;13.10;67.70
15646;BME280;7922;43.622;1.476;2023-03-21T09:28:52;100422.34;;;12.85;67.31
15646;BME280;7922;43.622;1.476;2023-03-21T09:31:17;100461.00;;;13.12;66.76
15646;BME280;7922;43.622;1.476;2023-03-21T09:33:42;100461.84;;;12.94;67.08
15646;BME280;7922;43.622;1.476;2023-03-21T09:36:09;100430.47;;;12.61;66.95
15646;BME280;7922;43.622;1.476;2023-03-21T09:38:35;100430.88;;;12.52;67.50
15646;BME280;7922;43.622;1.476;2023-03-21T09:48:55;100499.25;;;13.49;67.28
15646;BME280;7922;43.622;1.476;2023-03-21T09:51:21;100465.47;;;13.51;67.21
15646;BME280;7922;43.622;1.476;2023-03-21T09:53:48;100440.91;;;13.63;66.13
15646;BME280;7922;43.622;1.476;2023-03-21T09:56:14;100467.13;;;13.72;65.70
15646;BME280;7922;43.622;1.476;2023-03-21T09:58:45;100478.59;;;13.54;66.21
15646;BME280;7922;43.622;1.476;2023-03-21T10:01:17;100436.13;;;13.13;66.41
15646;BME280;7922;43.622;1.476;2023-03-21T10:03:43;100472.06;;;13.23;65.91
15646;BME280;7922;43.622;1.476;2023-03-21T10:06:13;100409.09;;;13.04;66.37
15646;BME280;7922;43.622;1.476;2023-03-21T10:08:40;100412.16;;;13.34;66.24
15646;BME280;7922;43.622;1.476;2023-03-21T10:11:20;100409.06;;;13.43;65.93
15646;BME280;7922;43.622;1.476;2023-03-21T10:13:50;100470.19;;;13.82;65.92
15646;BME280;7922;43.622;1.476;2023-03-21T10:16:33;100407.16;;;13.64;65.58
15646;BME280;7922;43.622;1.476;2023-03-21T10:19:03;100393.81;;;13.83;65.38
15646;BME280;7922;43.622;1.476;2023-03-21T10:21:29;100409.25;;;13.93;63.76
15646;BME280;7922;43.622;1.476;2023-03-21T10:23:56;100425.31;;;14.28;63.75
15646;BME280;7922;43.622;1.476;2023-03-21T10:26:24;100419.72;;;14.33;62.87
15646;BME280;7922;43.622;1.476;2023-03-21T10:28:49;100424.25;;;14.50;62.86
15646;BME280;7922;43.622;1.476;2023-03-21T10:31:17;100447.75;;;14.59;62.13
15646;BME280;7922;43.622;1.476;2023-03-21T10:33:47;100410.03;;;14.49;61.85
15646;BME280;7922;43.622;1.476;2023-03-21T10:36:23;100408.28;;;14.83;61.48
15646;BME280;7922;43.622;1.476;2023-03-21T10:38:54;100426.06;;;15.00;61.08
15646;BME280;7922;43.622;1.476;2023-03-21T10:41:20;100383.56;;;14.79;60.78
15646;BME280;7922;43.622;1.476;2023-03-21T10:44:03;100393.25;;;14.98;60.85
15646;BME280;7922;43.622;1.476;2023-03-21T10:46:29;100406.72;;;14.79;61.20
15646;BME280;7922;43.622;1.476;2023-03-21T10:48:54;100443.31;;;15.26;60.51
15646;BME280;7922;43.622;1.476;2023-03-21T10:51:22;100439.81;;;15.41;58.65
15646;BME280;7922;43.622;1.476;2023-03-21T10:53:56;100437.03;;;15.43;57.97
15646;BME280;7922;43.622;1.476;2023-03-21T10:56:25;100433.19;;;15.64;57.54
15646;BME280;7922;43.622;1.476;2023-03-21T10:58:53;100457.34;;;15.94;57.25
15646;BME280;7922;43.622;1.476;2023-03-21T11:04:08;100453.63;;;15.81;56.94
15646;BME280;7922;43.622;1.476;2023-03-21T11:06:40;100438.78;;;16.07;55.30
15646;BME280;7922;43.622;1.476;2023-03-21T11:09:11;100423.97;;;15.85;55.91
15646;BME280;7922;43.622;1.476;2023-03-21T11:11:49;100451.69;;;16.30;56.57
15646;BME280;7922;43.622;1.476;2023-03-21T11:16:57;100466.59;;;16.34;54.93
15646;BME280;7922;43.622;1.476;2023-03-21T11:19:31;100403.59;;;16.15;53.98
15646;BME280;7922;43.622;1.476;2023-03-21T11:21:58;100428.53;;;16.45;54.67
15646;BME280;7922;43.622;1.476;2023-03-21T11:24:27;100435.88;;;16.42;54.19
15646;BME280;7922;43.622;1.476;2023-03-21T11:26:54;100416.31;;;15.95;55.33
15646;BME280;7922;43.622;1.476;2023-03-21T11:29:30;100458.00;;;16.44;55.33
15646;BME280;7922;43.622;1.476;2023-03-21T11:31:59;100453.63;;;16.12;54.72
15646;BME280;7922;43.622;1.476;2023-03-21T11:37:15;100445.59;;;16.43;52.51
15646;BME280;7922;43.622;1.476;2023-03-21T11:39:43;100392.13;;;16.43;52.44
15646;BME280;7922;43.622;1.476;2023-03-21T11:42:26;100377.03;;;16.11;52.22
15646;BME280;7922;43.622;1.476;2023-03-21T11:44:59;100436.97;;;16.37;52.54
15646;BME280;7922;43.622;1.476;2023-03-21T11:47:25;100384.34;;;15.78;53.06
15646;BME280;7922;43.622;1.476;2023-03-21T11:49:50;100416.31;;;15.79;53.70
15646;BME280;7922;43.622;1.476;2023-03-21T11:52:37;100382.38;;;16.42;52.57
15646;BME280;7922;43.622;1.476;2023-03-21T11:58:08;100436.41;;;16.32;53.16
15646;BME280;7922;43.622;1.476;2023-03-21T12:00:56;100395.28;;;16.19;53.58
15646;BME280;7922;43.622;1.476;2023-03-21T12:03:45;100418.69;;;16.46;53.21
15646;BME280;7922;43.622;1.476;2023-03-21T12:06:20;100393.19;;;16.69;52.09
15646;BME280;7922;43.622;1.476;2023-03-21T12:09:12;100419.38;;;16.33;53.30
15646;BME280;7922;43.622;1.476;2023-03-21T12:16:46;100335.00;;;15.99;52.69
15646;BME280;7922;43.622;1.476;2023-03-21T12:22:09;100395.25;;;16.79;51.28
15646;BME280;7922;43.622;1.476;2023-03-21T12:24:53;100323.66;;;16.54;51.81
15646;BME280;7922;43.622;1.476;2023-03-21T12:39:00;100386.28;;;17.65;49.61
15646;BME280;7922;43.622;1.476;2023-03-21T12:44:32;100352.84;;;17.70;47.79
15646;BME280;7922;43.622;1.476;2023-03-21T12:47:05;100385.91;;;17.01;48.23
15646;BME280;7922;43.622;1.476;2023-03-21T12:49:36;100385.41;;;16.94;49.39
15646;BME280;7922;43.622;1.476;2023-03-21T12:52:07;100355.41;;;17.45;48.60
15646;BME280;7922;43.622;1.476;2023-03-21T12:54:38;100365.94;;;17.48;49.27
15646;BME280;7922;43.622;1.476;2023-03-21T12:59:43;100358.16;;;17.16;49.72
15646;BME280;7922;43.622;1.476;2023-03-21T13:02:37;100358.34;;;17.13;48.71
15646;BME280;7922;43.622;1.476;2023-03-21T13:05:23;100352.91;;;17.56;48.19
15646;BME280;7922;43.622;1.476;2023-03-21T13:07:57;100360.22;;;17.40;48.13
15646;BME280;7922;43.622;1.476;2023-03-21T13:10:23;100325.38;;;17.13;49.02
15646;BME280;7922;43.622;1.476;2023-03-21T13:13:10;100320.97;;;17.12;48.96
15646;BME280;7922;43.622;1.476;2023-03-21T13:15:52;100349.25;;;17.30;49.02
15646;BME280;7922;43.622;1.476;2023-03-21T13:18:37;100268.34;;;16.83;47.74
15646;BME280;7922;43.622;1.476;2023-03-21T13:26:57;100294.03;;;16.72;48.66
15646;BME280;7922;43.622;1.476;2023-03-21T13:29:28;100325.22;;;16.87;47.34
15646;BME280;7922;43.622;1.476;2023-03-21T13:32:04;100270.94;;;16.85;47.35
15646;BME280;7922;43.622;1.476;2023-03-21T13:34:30;100297.47;;;17.02;47.59
15646;BME280;7922;43.622;1.476;2023-03-21T13:36:56;100257.16;;;16.05;48.66
15646;BME280;7922;43.622;1.476;2023-03-21T13:39:26;100306.75;;;16.54;48.21
15646;BME280;7922;43.622;1.476;2023-03-21T13:41:53;100308.38;;;16.56;48.22
15646;BME280;7922;43.622;1.476;2023-03-21T13:49:33;100311.63;;;17.31;46.64
15646;BME280;7922;43.622;1.476;2023-03-21T13:57:12;100241.41;;;16.15;47.80
15646;BME280;7922;43.622;1.476;2023-03-21T13:59:44;100300.81;;;16.34;47.64
15646;BME280;7922;43.622;1.476;2023-03-21T14:02:23;100299.56;;;16.54;47.15
15646;BME280;7922;43.622;1.476;2023-03-21T14:04:58;100250.94;;;16.62;47.29
15646;BME280;7922;43.622;1.476;2023-03-21T14:07:33;100274.41;;;17.14;46.36
15646;BME280;7922;43.622;1.476;2023-03-21T14:10:34;100295.25;;;17.09;46.53
15646;BME280;7922;43.622;1.476;2023-03-21T14:12:59;100249.13;;;16.63;46.26
15646;BME280;7922;43.622;1.476;2023-03-21T14:15:37;100279.81;;;17.00;45.09
15646;BME280;7922;43.622;1.476;2023-03-21T14:18:04;100298.09;;;17.74;45.35
15646;BME280;7922;43.622;1.476;2023-03-21T14:20:32;100242.44;;;17.25;44.87
15646;BME280;7922;43.622;1.476;2023-03-21T14:22:58;100270.16;;;17.51;45.71
15646;BME280;7922;43.622;1.476;2023-03-21T14:25:30;100292.97;;;17.44;45.85
15646;BME280;7922;43.622;1.476;2023-03-21T14:27:58;100218.75;;;17.19;45.57
15646;BME280;7922;43.622;1.476;2023-03-21T14:30:33;100264.72;;;17.93;44.26
15646;BME280;7922;43.622;1.476;2023-03-21T14:33:30;100226.09;;;17.43;44.20
15646;BME280;7922;43.622;1.476;2023-03-21T14:35:58;100246.31;;;17.74;44.48
15646;BME280;7922;43.622;1.476;2023-03-21T14:38:26;100240.06;;;17.48;42.85
15646;BME280;7922;43.622;1.476;2023-03-21T14:40:54;100222.53;;;17.69;43.20
15646;BME280;7922;43.622;1.476;2023-03-21T14:43:22;100271.16;;;17.90;42.67
15646;BME280;7922;43.622;1.476;2023-03-21T14:45:50;100222.84;;;17.65;42.09